Mirage, Nebraska
Current Conditions -  °F | °C
As of 12:55 AM on Friday 31 Oct 2014 (Local Time) from KHDE Reporting Station
Clear Clear  
Wind Chill: 35°   Ceiling: Unl
Heat Index: 35°   Visibility: 10mi
Dew Point: 31°   Wind: 0mph
Humidity: 85%   Direction: NA
Pressure: 30.44"   Gusts: NA
Location:  40.5474°N, 99.1227°W
Report Text: KHDE 310555Z AUTO 00000KT 10SM CLR 02/00 A3044 RMK AO2 T00191003 10121 20019 401770019
Loading
Personal Weather Stations






























Interactive Weather Map
Tropical Storm Tracking
New forecast layout! Learn more

10-Day Weather Forecast

Advertisements
Track Severe Weather on mobile